sensor_id;sensor_type;location;lat;lon;timestamp;pressure;altitude;pressure_sealevel;temperature;humidity
3178;BME280;38141;42.666;23.344;2023-06-14T00:02:12;94386.38;;;17.85;100.00
3178;BME280;38141;42.666;23.344;2023-06-14T00:04:39;94374.69;;;17.97;100.00
3178;BME280;38141;42.666;23.344;2023-06-14T00:07:07;94384.06;;;18.21;100.00
3178;BME280;38141;42.666;23.344;2023-06-14T00:09:34;94378.28;;;18.07;100.00
3178;BME280;38141;42.666;23.344;2023-06-14T00:12:01;94360.00;;;18.04;100.00
3178;BME280;38141;42.666;23.344;2023-06-14T00:14:28;94352.53;;;18.04;100.00
3178;BME280;38141;42.666;23.344;2023-06-14T00:16:56;94362.94;;;18.22;100.00
3178;BME280;38141;42.666;23.344;2023-06-14T00:19:24;94350.69;;;18.01;100.00
3178;BME280;38141;42.666;23.344;2023-06-14T00:21:51;94360.66;;;18.08;100.00
3178;BME280;38141;42.666;23.344;2023-06-14T00:24:18;94351.56;;;18.11;100.00
3178;BME280;38141;42.666;23.344;2023-06-14T00:26:45;94342.38;;;18.05;100.00
3178;BME280;38141;42.666;23.344;2023-06-14T00:29:12;94353.88;;;18.12;100.00
3178;BME280;38141;42.666;23.344;2023-06-14T00:31:39;94357.38;;;18.26;100.00
3178;BME280;38141;42.666;23.344;2023-06-14T00:34:07;94338.97;;;18.01;100.00
3178;BME280;38141;42.666;23.344;2023-06-14T00:36:34;94358.03;;;18.04;100.00
3178;BME280;38141;42.666;23.344;2023-06-14T00:39:01;94334.47;;;17.82;100.00
3178;BME280;38141;42.666;23.344;2023-06-14T00:41:29;94358.03;;;17.92;100.00
3178;BME280;38141;42.666;23.344;2023-06-14T00:43:55;94357.94;;;18.08;100.00
3178;BME280;38141;42.666;23.344;2023-06-14T00:46:23;94350.69;;;18.14;100.00
3178;BME280;38141;42.666;23.344;2023-06-14T00:48:50;94340.84;;;17.91;100.00
3178;BME280;38141;42.666;23.344;2023-06-14T00:51:18;94343.03;;;18.09;100.00
3178;BME280;38141;42.666;23.344;2023-06-14T00:53:45;94346.09;;;18.11;100.00
3178;BME280;38141;42.666;23.344;2023-06-14T00:56:13;94350.38;;;18.12;100.00
3178;BME280;38141;42.666;23.344;2023-06-14T00:58:40;94337.22;;;18.07;100.00
3178;BME280;38141;42.666;23.344;2023-06-14T01:01:07;94335.03;;;18.14;100.00
3178;BME280;38141;42.666;23.344;2023-06-14T01:03:34;94344.31;;;18.17;100.00
3178;BME280;38141;42.666;23.344;2023-06-14T01:06:14;94352.78;;;17.85;100.00
3178;BME280;38141;42.666;23.344;2023-06-14T01:08:51;94355.41;;;18.01;100.00
3178;BME280;38141;42.666;23.344;2023-06-14T01:11:28;94343.13;;;18.05;100.00
3178;BME280;38141;42.666;23.344;2023-06-14T01:14:00;94347.41;;;17.94;100.00
3178;BME280;38141;42.666;23.344;2023-06-14T01:16:29;94314.47;;;17.85;100.00
3178;BME280;38141;42.666;23.344;2023-06-14T01:18:57;94330.09;;;18.22;100.00
3178;BME280;38141;42.666;23.344;2023-06-14T01:21:25;94349.91;;;18.13;100.00
3178;BME280;38141;42.666;23.344;2023-06-14T01:23:55;94348.41;;;18.12;100.00
3178;BME280;38141;42.666;23.344;2023-06-14T01:26:22;94346.19;;;18.20;100.00
3178;BME280;38141;42.666;23.344;2023-06-14T01:28:50;94308.66;;;18.08;100.00
3178;BME280;38141;42.666;23.344;2023-06-14T01:31:20;94346.31;;;18.29;100.00
3178;BME280;38141;42.666;23.344;2023-06-14T01:33:48;94343.19;;;18.40;100.00
3178;BME280;38141;42.666;23.344;2023-06-14T01:36:16;94322.22;;;18.11;100.00
3178;BME280;38141;42.666;23.344;2023-06-14T01:38:44;94341.50;;;17.95;100.00
3178;BME280;38141;42.666;23.344;2023-06-14T01:41:13;94334.38;;;17.98;100.00
3178;BME280;38141;42.666;23.344;2023-06-14T01:43:41;94341.94;;;18.06;100.00
3178;BME280;38141;42.666;23.344;2023-06-14T01:46:09;94342.91;;;18.00;100.00
3178;BME280;38141;42.666;23.344;2023-06-14T01:48:37;94344.69;;;18.06;100.00
3178;BME280;38141;42.666;23.344;2023-06-14T01:51:05;94338.84;;;18.04;100.00
3178;BME280;38141;42.666;23.344;2023-06-14T01:53:31;94335.81;;;18.02;100.00
3178;BME280;38141;42.666;23.344;2023-06-14T01:55:58;94342.47;;;18.14;100.00
3178;BME280;38141;42.666;23.344;2023-06-14T01:58:26;94340.84;;;18.16;100.00
3178;BME280;38141;42.666;23.344;2023-06-14T02:00:54;94355.94;;;18.21;100.00
3178;BME280;38141;42.666;23.344;2023-06-14T02:03:22;94336.09;;;18.17;100.00
3178;BME280;38141;42.666;23.344;2023-06-14T02:05:48;94352.88;;;18.19;100.00
3178;BME280;38141;42.666;23.344;2023-06-14T02:08:15;94350.91;;;18.19;100.00
3178;BME280;38141;42.666;23.344;2023-06-14T02:10:42;94336.34;;;17.97;100.00
3178;BME280;38141;42.666;23.344;2023-06-14T02:13:09;94357.38;;;18.00;100.00
3178;BME280;38141;42.666;23.344;2023-06-14T02:15:37;94344.00;;;17.77;100.00
3178;BME280;38141;42.666;23.344;2023-06-14T02:18:04;94370.69;;;17.73;100.00
3178;BME280;38141;42.666;23.344;2023-06-14T02:20:33;94356.44;;;17.53;100.00
3178;BME280;38141;42.666;23.344;2023-06-14T02:23:00;94339.19;;;17.27;100.00
3178;BME280;38141;42.666;23.344;2023-06-14T02:25:27;94367.41;;;17.37;100.00
3178;BME280;38141;42.666;23.344;2023-06-14T02:27:54;94353.50;;;17.31;100.00
3178;BME280;38141;42.666;23.344;2023-06-14T02:30:21;94380.00;;;17.34;100.00
3178;BME280;38141;42.666;23.344;2023-06-14T02:32:49;94333.63;;;17.02;100.00
3178;BME280;38141;42.666;23.344;2023-06-14T02:35:16;94376.25;;;17.28;100.00
3178;BME280;38141;42.666;23.344;2023-06-14T02:37:43;94372.78;;;17.40;100.00
3178;BME280;38141;42.666;23.344;2023-06-14T02:40:11;94367.72;;;17.67;100.00
3178;BME280;38141;42.666;23.344;2023-06-14T02:42:37;94358.94;;;17.47;100.00
3178;BME280;38141;42.666;23.344;2023-06-14T02:45:05;94358.97;;;17.72;100.00
3178;BME280;38141;42.666;23.344;2023-06-14T02:47:35;94357.94;;;17.54;100.00
3178;BME280;38141;42.666;23.344;2023-06-14T02:50:04;94370.41;;;17.55;100.00
3178;BME280;38141;42.666;23.344;2023-06-14T02:52:32;94367.94;;;17.60;100.00
3178;BME280;38141;42.666;23.344;2023-06-14T02:54:59;94369.56;;;17.58;100.00
3178;BME280;38141;42.666;23.344;2023-06-14T02:57:26;94377.06;;;17.70;100.00
3178;BME280;38141;42.666;23.344;2023-06-14T02:59:53;94376.63;;;17.84;100.00
3178;BME280;38141;42.666;23.344;2023-06-14T03:02:19;94380.97;;;17.69;100.00
3178;BME280;38141;42.666;23.344;2023-06-14T03:04:46;94383.53;;;17.76;100.00
3178;BME280;38141;42.666;23.344;2023-06-14T03:07:15;94364.91;;;17.71;100.00
3178;BME280;38141;42.666;23.344;2023-06-14T03:09:45;94382.13;;;17.84;100.00
3178;BME280;38141;42.666;23.344;2023-06-14T03:12:11;94381.34;;;17.84;100.00
3178;BME280;38141;42.666;23.344;2023-06-14T03:14:38;94387.91;;;17.86;100.00
3178;BME280;38141;42.666;23.344;2023-06-14T03:17:05;94376.06;;;17.76;100.00
3178;BME280;38141;42.666;23.344;2023-06-14T03:19:33;94393.13;;;17.68;100.00
3178;BME280;38141;42.666;23.344;2023-06-14T03:22:00;94390.63;;;17.73;100.00
3178;BME280;38141;42.666;23.344;2023-06-14T03:24:29;94364.78;;;17.62;100.00
3178;BME280;38141;42.666;23.344;2023-06-14T03:27:02;94372.22;;;17.61;100.00
3178;BME280;38141;42.666;23.344;2023-06-14T03:29:28;94394.16;;;17.87;100.00
3178;BME280;38141;42.666;23.344;2023-06-14T03:31:57;94386.59;;;17.78;100.00
3178;BME280;38141;42.666;23.344;2023-06-14T03:34:26;94361.19;;;17.65;100.00
3178;BME280;38141;42.666;23.344;2023-06-14T03:36:53;94381.47;;;17.51;100.00
3178;BME280;38141;42.666;23.344;2023-06-14T03:39:19;94394.97;;;17.58;100.00
3178;BME280;38141;42.666;23.344;2023-06-14T03:41:48;94380.44;;;17.32;100.00
3178;BME280;38141;42.666;23.344;2023-06-14T03:44:16;94400.66;;;17.64;100.00
3178;BME280;38141;42.666;23.344;2023-06-14T03:46:43;94397.94;;;17.64;100.00
3178;BME280;38141;42.666;23.344;2023-06-14T03:49:10;94393.47;;;17.70;100.00
3178;BME280;38141;42.666;23.344;2023-06-14T03:51:37;94400.47;;;17.42;100.00
3178;BME280;38141;42.666;23.344;2023-06-14T03:54:05;94392.56;;;17.60;100.00
3178;BME280;38141;42.666;23.344;2023-06-14T03:56:32;94394.47;;;17.76;100.00
3178;BME280;38141;42.666;23.344;2023-06-14T03:59:00;94408.28;;;17.56;100.00
3178;BME280;38141;42.666;23.344;2023-06-14T04:01:27;94404.44;;;17.54;100.00
3178;BME280;38141;42.666;23.344;2023-06-14T04:03:55;94408.16;;;17.76;100.00
3178;BME280;38141;42.666;23.344;2023-06-14T04:06:23;94404.66;;;17.88;100.00
3178;BME280;38141;42.666;23.344;2023-06-14T04:08:58;94403.56;;;17.86;100.00
3178;BME280;38141;42.666;23.344;2023-06-14T04:11:27;94367.25;;;17.44;100.00
3178;BME280;38141;42.666;23.344;2023-06-14T04:13:54;94384.28;;;17.76;100.00
3178;BME280;38141;42.666;23.344;2023-06-14T04:16:23;94402.88;;;17.69;100.00
3178;BME280;38141;42.666;23.344;2023-06-14T04:18:50;94409.38;;;18.00;100.00
3178;BME280;38141;42.666;23.344;2023-06-14T04:21:17;94366.22;;;17.79;100.00
3178;BME280;38141;42.666;23.344;2023-06-14T04:23:44;94399.53;;;18.28;100.00
3178;BME280;38141;42.666;23.344;2023-06-14T04:26:11;94375.88;;;18.34;100.00
3178;BME280;38141;42.666;23.344;2023-06-14T04:28:38;94404.00;;;18.73;100.00
3178;BME280;38141;42.666;23.344;2023-06-14T04:31:06;94398.34;;;19.01;100.00
3178;BME280;38141;42.666;23.344;2023-06-14T04:33:35;94405.59;;;18.95;100.00
3178;BME280;38141;42.666;23.344;2023-06-14T04:36:08;94404.97;;;19.26;100.00
3178;BME280;38141;42.666;23.344;2023-06-14T04:38:35;94402.88;;;19.30;100.00
3178;BME280;38141;42.666;23.344;2023-06-14T04:41:02;94402.47;;;19.40;100.00
3178;BME280;38141;42.666;23.344;2023-06-14T04:43:29;94316.16;;;18.89;100.00
3178;BME280;38141;42.666;23.344;2023-06-14T04:45:57;94413.34;;;19.87;100.00
3178;BME280;38141;42.666;23.344;2023-06-14T04:48:24;94410.31;;;19.94;100.00
3178;BME280;38141;42.666;23.344;2023-06-14T04:50:52;94415.53;;;20.63;100.00
3178;BME280;38141;42.666;23.344;2023-06-14T04:53:19;94420.38;;;20.50;100.00
3178;BME280;38141;42.666;23.344;2023-06-14T04:55:48;94414.50;;;20.70;100.00
3178;BME280;38141;42.666;23.344;2023-06-14T04:58:15;94400.44;;;20.77;100.00
3178;BME280;38141;42.666;23.344;2023-06-14T05:00:43;94410.38;;;20.65;100.00
3178;BME280;38141;42.666;23.344;2023-06-14T05:03:10;94427.78;;;20.80;100.00
3178;BME280;38141;42.666;23.344;2023-06-14T05:05:39;94442.22;;;20.94;100.00
3178;BME280;38141;42.666;23.344;2023-06-14T05:08:07;94449.63;;;21.15;100.00
3178;BME280;38141;42.666;23.344;2023-06-14T05:10:35;94419.88;;;20.92;100.00
3178;BME280;38141;42.666;23.344;2023-06-14T05:13:01;94444.97;;;20.94;100.00
3178;BME280;38141;42.666;23.344;2023-06-14T05:15:29;94409.97;;;20.45;100.00
3178;BME280;38141;42.666;23.344;2023-06-14T05:17:55;94442.22;;;21.03;100.00
3178;BME280;38141;42.666;23.344;2023-06-14T05:20:23;94407.56;;;20.47;100.00
3178;BME280;38141;42.666;23.344;2023-06-14T05:22:52;94446.47;;;20.15;100.00
3178;BME280;38141;42.666;23.344;2023-06-14T05:25:21;94451.59;;;21.14;100.00
3178;BME280;38141;42.666;23.344;2023-06-14T05:27:48;94453.13;;;22.25;100.00
3178;BME280;38141;42.666;23.344;2023-06-14T05:30:15;94465.78;;;23.15;100.00
3178;BME280;38141;42.666;23.344;2023-06-14T05:32:42;94478.00;;;23.71;100.00
3178;BME280;38141;42.666;23.344;2023-06-14T05:35:09;94470.56;;;24.59;100.00
3178;BME280;38141;42.666;23.344;2023-06-14T05:37:36;94470.38;;;24.63;100.00
3178;BME280;38141;42.666;23.344;2023-06-14T05:40:03;94477.81;;;23.03;100.00
3178;BME280;38141;42.666;23.344;2023-06-14T05:42:33;94468.94;;;21.97;100.00
3178;BME280;38141;42.666;23.344;2023-06-14T05:45:00;94465.84;;;21.95;100.00
3178;BME280;38141;42.666;23.344;2023-06-14T05:47:27;94464.16;;;22.15;100.00
3178;BME280;38141;42.666;23.344;2023-06-14T05:49:54;94471.06;;;22.62;100.00
3178;BME280;38141;42.666;23.344;2023-06-14T05:52:21;94489.00;;;22.99;100.00
3178;BME280;38141;42.666;23.344;2023-06-14T05:54:47;94464.53;;;22.92;100.00
3178;BME280;38141;42.666;23.344;2023-06-14T05:57:14;94475.00;;;23.12;100.00
3178;BME280;38141;42.666;23.344;2023-06-14T05:59:42;94474.56;;;23.04;100.00
3178;BME280;38141;42.666;23.344;2023-06-14T06:02:09;94456.13;;;22.87;100.00
3178;BME280;38141;42.666;23.344;2023-06-14T06:04:36;94477.69;;;22.97;100.00
3178;BME280;38141;42.666;23.344;2023-06-14T06:07:03;94475.28;;;22.81;100.00
3178;BME280;38141;42.666;23.344;2023-06-14T06:09:31;94453.56;;;22.23;100.00
3178;BME280;38141;42.666;23.344;2023-06-14T06:11:57;94487.06;;;22.31;100.00
3178;BME280;38141;42.666;23.344;2023-06-14T06:14:24;94468.47;;;21.98;100.00
3178;BME280;38141;42.666;23.344;2023-06-14T06:16:54;94441.22;;;21.73;100.00
3178;BME280;38141;42.666;23.344;2023-06-14T06:19:20;94484.66;;;21.33;100.00
3178;BME280;38141;42.666;23.344;2023-06-14T06:21:47;94460.94;;;21.44;100.00
3178;BME280;38141;42.666;23.344;2023-06-14T06:24:14;94447.03;;;21.29;100.00
3178;BME280;38141;42.666;23.344;2023-06-14T06:26:41;94490.19;;;21.60;100.00
3178;BME280;38141;42.666;23.344;2023-06-14T06:29:08;94495.25;;;21.89;100.00
3178;BME280;38141;42.666;23.344;2023-06-14T06:31:35;94494.47;;;21.70;100.00
3178;BME280;38141;42.666;23.344;2023-06-14T06:34:18;94498.75;;;21.53;100.00
3178;BME280;38141;42.666;23.344;2023-06-14T06:36:45;94502.22;;;21.35;100.00
3178;BME280;38141;42.666;23.344;2023-06-14T06:39:12;94496.59;;;21.39;100.00
3178;BME280;38141;42.666;23.344;2023-06-14T06:41:40;94491.06;;;21.20;100.00
3178;BME280;38141;42.666;23.344;2023-06-14T06:44:07;94489.97;;;21.18;100.00
3178;BME280;38141;42.666;23.344;2023-06-14T06:46:35;94504.22;;;21.25;100.00
3178;BME280;38141;42.666;23.344;2023-06-14T06:49:05;94503.59;;;21.40;100.00
3178;BME280;38141;42.666;23.344;2023-06-14T06:51:34;94508.19;;;21.34;100.00
3178;BME280;38141;42.666;23.344;2023-06-14T06:54:02;94505.44;;;21.34;100.00
3178;BME280;38141;42.666;23.344;2023-06-14T06:56:31;94472.16;;;20.92;100.00
3178;BME280;38141;42.666;23.344;2023-06-14T06:58:58;94506.78;;;20.71;100.00
3178;BME280;38141;42.666;23.344;2023-06-14T07:01:25;94489.00;;;20.63;100.00
3178;BME280;38141;42.666;23.344;2023-06-14T07:03:54;94401.13;;;20.10;100.00
3178;BME280;38141;42.666;23.344;2023-06-14T07:06:21;94406.06;;;20.55;100.00
3178;BME280;38141;42.666;23.344;2023-06-14T07:08:53;94505.47;;;21.52;100.00
3178;BME280;38141;42.666;23.344;2023-06-14T07:11:20;94496.00;;;21.53;100.00
3178;BME280;38141;42.666;23.344;2023-06-14T07:13:47;94498.13;;;21.58;100.00
3178;BME280;38141;42.666;23.344;2023-06-14T07:16:14;94496.16;;;21.95;100.00
3178;BME280;38141;42.666;23.344;2023-06-14T07:18:41;94478.13;;;21.94;100.00
3178;BME280;38141;42.666;23.344;2023-06-14T07:21:08;94473.00;;;22.29;100.00
3178;BME280;38141;42.666;23.344;2023-06-14T07:23:35;94490.03;;;22.78;100.00
3178;BME280;38141;42.666;23.344;2023-06-14T07:26:03;94483.50;;;23.23;100.00
3178;BME280;38141;42.666;23.344;2023-06-14T07:28:30;94499.13;;;23.98;100.00
3178;BME280;38141;42.666;23.344;2023-06-14T07:30:57;94497.56;;;25.49;92.59
3178;BME280;38141;42.666;23.344;2023-06-14T07:33:24;94494.75;;;25.08;92.32
3178;BME280;38141;42.666;23.344;2023-06-14T07:35:50;94490.25;;;25.86;83.07
3178;BME280;38141;42.666;23.344;2023-06-14T07:38:18;94497.34;;;25.67;83.04
3178;BME280;38141;42.666;23.344;2023-06-14T07:40:45;94493.16;;;25.37;89.69
3178;BME280;38141;42.666;23.344;2023-06-14T07:43:13;94492.81;;;26.10;82.09
3178;BME280;38141;42.666;23.344;2023-06-14T07:45:40;94498.34;;;25.49;85.89
3178;BME280;38141;42.666;23.344;2023-06-14T07:48:07;94492.22;;;25.80;84.56
3178;BME280;38141;42.666;23.344;2023-06-14T07:50:34;94492.59;;;26.13;76.18
3178;BME280;38141;42.666;23.344;2023-06-14T07:53:01;94496.72;;;25.98;74.96
3178;BME280;38141;42.666;23.344;2023-06-14T07:55:28;94505.38;;;26.05;74.69
3178;BME280;38141;42.666;23.344;2023-06-14T07:57:56;94505.28;;;26.72;72.18
3178;BME280;38141;42.666;23.344;2023-06-14T08:00:24;94505.09;;;26.24;74.52
3178;BME280;38141;42.666;23.344;2023-06-14T08:02:51;94507.03;;;25.22;87.61
3178;BME280;38141;42.666;23.344;2023-06-14T08:05:26;94495.38;;;24.54;91.30
3178;BME280;38141;42.666;23.344;2023-06-14T08:07:57;94498.59;;;24.67;93.69
3178;BME280;38141;42.666;23.344;2023-06-14T08:10:38;94517.22;;;25.86;87.46
3178;BME280;38141;42.666;23.344;2023-06-14T08:13:05;94508.06;;;25.39;79.02
3178;BME280;38141;42.666;23.344;2023-06-14T08:15:41;94518.13;;;25.97;77.44
3178;BME280;38141;42.666;23.344;2023-06-14T08:18:08;94507.03;;;25.97;77.13
3178;BME280;38141;42.666;23.344;2023-06-14T08:20:35;94512.09;;;25.99;79.42
3178;BME280;38141;42.666;23.344;2023-06-14T08:23:02;94527.91;;;25.73;83.98
3178;BME280;38141;42.666;23.344;2023-06-14T08:25:29;94534.59;;;24.96;89.94
3178;BME280;38141;42.666;23.344;2023-06-14T08:27:56;94530.94;;;25.40;90.55
3178;BME280;38141;42.666;23.344;2023-06-14T08:30:23;94535.09;;;25.30;87.79
3178;BME280;38141;42.666;23.344;2023-06-14T08:32:51;94458.44;;;24.86;90.75
3178;BME280;38141;42.666;23.344;2023-06-14T08:35:20;94535.25;;;25.96;79.19
3178;BME280;38141;42.666;23.344;2023-06-14T08:37:47;94530.38;;;26.31;75.08
3178;BME280;38141;42.666;23.344;2023-06-14T08:40:19;94541.00;;;26.59;75.34
3178;BME280;38141;42.666;23.344;2023-06-14T08:42:50;94503.19;;;25.89;82.24
3178;BME280;38141;42.666;23.344;2023-06-14T08:45:18;94523.91;;;26.40;77.78
3178;BME280;38141;42.666;23.344;2023-06-14T08:47:45;94435.28;;;26.57;71.12
3178;BME280;38141;42.666;23.344;2023-06-14T08:50:20;94513.25;;;27.58;61.05
3178;BME280;38141;42.666;23.344;2023-06-14T08:52:53;94480.25;;;27.77;60.22
3178;BME280;38141;42.666;23.344;2023-06-14T08:55:22;94506.63;;;27.98;62.24
3178;BME280;38141;42.666;23.344;2023-06-14T08:57:51;94481.38;;;28.07;61.11
3178;BME280;38141;42.666;23.344;2023-06-14T09:00:20;94512.59;;;28.34;60.91
3178;BME280;38141;42.666;23.344;2023-06-14T09:02:47;94475.16;;;26.90;65.36
3178;BME280;38141;42.666;23.344;2023-06-14T09:05:14;94512.94;;;27.93;60.93
3178;BME280;38141;42.666;23.344;2023-06-14T09:07:45;94494.06;;;28.14;60.22
3178;BME280;38141;42.666;23.344;2023-06-14T09:10:15;94491.13;;;27.80;60.53
3178;BME280;38141;42.666;23.344;2023-06-14T09:12:42;94514.47;;;28.05;61.91
3178;BME280;38141;42.666;23.344;2023-06-14T09:15:10;94510.78;;;27.29;66.11
3178;BME280;38141;42.666;23.344;2023-06-14T09:17:37;94499.97;;;26.99;66.49
3178;BME280;38141;42.666;23.344;2023-06-14T09:20:06;94481.75;;;27.78;62.07
3178;BME280;38141;42.666;23.344;2023-06-14T09:22:37;94471.41;;;27.36;62.35
3178;BME280;38141;42.666;23.344;2023-06-14T09:25:06;94502.88;;;27.53;59.76
3178;BME280;38141;42.666;23.344;2023-06-14T09:27:34;94505.03;;;27.38;60.80
3178;BME280;38141;42.666;23.344;2023-06-14T09:30:02;94485.00;;;28.58;56.46
3178;BME280;38141;42.666;23.344;2023-06-14T09:32:29;94499.75;;;30.16;52.97
3178;BME280;38141;42.666;23.344;2023-06-14T09:34:57;94507.88;;;31.31;48.47
3178;BME280;38141;42.666;23.344;2023-06-14T09:37:28;94503.75;;;31.08;50.57
3178;BME280;38141;42.666;23.344;2023-06-14T09:39:56;94499.25;;;31.29;49.35
3178;BME280;38141;42.666;23.344;2023-06-14T09:42:24;94526.25;;;31.21;48.64
3178;BME280;38141;42.666;23.344;2023-06-14T09:44:55;94492.34;;;31.60;46.94
3178;BME280;38141;42.666;23.344;2023-06-14T09:47:23;94483.78;;;32.20;46.80
3178;BME280;38141;42.666;23.344;2023-06-14T09:49:51;94462.16;;;31.96;45.74
3178;BME280;38141;42.666;23.344;2023-06-14T09:52:21;94493.50;;;30.86;48.42
3178;BME280;38141;42.666;23.344;2023-06-14T09:54:49;94481.19;;;30.24;50.53
3178;BME280;38141;42.666;23.344;2023-06-14T09:57:20;94495.69;;;29.04;51.98
3178;BME280;38141;42.666;23.344;2023-06-14T09:59:52;94494.63;;;28.62;54.33
3178;BME280;38141;42.666;23.344;2023-06-14T10:02:24;94453.59;;;28.18;55.71
3178;BME280;38141;42.666;23.344;2023-06-14T10:04:57;94454.91;;;27.16;60.66
3178;BME280;38141;42.666;23.344;2023-06-14T10:07:26;94468.59;;;26.62;63.23
3178;BME280;38141;42.666;23.344;2023-06-14T10:10:06;94470.94;;;27.91;57.37
3178;BME280;38141;42.666;23.344;2023-06-14T10:12:33;94469.19;;;27.99;55.98
3178;BME280;38141;42.666;23.344;2023-06-14T10:15:02;94467.00;;;28.20;56.45
3178;BME280;38141;42.666;23.344;2023-06-14T10:17:43;94466.84;;;28.73;55.51
3178;BME280;38141;42.666;23.344;2023-06-14T10:20:21;94464.75;;;28.57;54.62
3178;BME280;38141;42.666;23.344;2023-06-14T10:22:55;94451.91;;;28.82;53.02
3178;BME280;38141;42.666;23.344;2023-06-14T10:25:26;94446.47;;;28.06;57.70
3178;BME280;38141;42.666;23.344;2023-06-14T10:28:02;94449.47;;;27.97;58.04
3178;BME280;38141;42.666;23.344;2023-06-14T10:30:30;94414.94;;;27.50;59.49
3178;BME280;38141;42.666;23.344;2023-06-14T10:33:04;94448.41;;;27.30;59.56
3178;BME280;38141;42.666;23.344;2023-06-14T10:35:31;94451.34;;;27.52;60.12
3178;BME280;38141;42.666;23.344;2023-06-14T10:38:06;94452.19;;;27.75;59.29
3178;BME280;38141;42.666;23.344;2023-06-14T10:40:37;94458.94;;;27.63;57.82
3178;BME280;38141;42.666;23.344;2023-06-14T10:43:21;94448.47;;;28.06;54.57
3178;BME280;38141;42.666;23.344;2023-06-14T10:46:18;94445.75;;;27.10;58.23
3178;BME280;38141;42.666;23.344;2023-06-14T10:48:48;94449.22;;;27.41;58.34
3178;BME280;38141;42.666;23.344;2023-06-14T10:51:17;94439.50;;;27.68;56.77
3178;BME280;38141;42.666;23.344;2023-06-14T10:53:49;94454.50;;;27.88;56.50
3178;BME280;38141;42.666;23.344;2023-06-14T10:56:28;94350.78;;;27.59;56.80
3178;BME280;38141;42.666;23.344;2023-06-14T10:58:56;94356.47;;;27.28;55.19
3178;BME280;38141;42.666;23.344;2023-06-14T11:01:36;94342.88;;;27.41;53.65
3178;BME280;38141;42.666;23.344;2023-06-14T11:04:07;94427.31;;;28.25;52.90
3178;BME280;38141;42.666;23.344;2023-06-14T11:06:45;94414.16;;;28.48;53.75
3178;BME280;38141;42.666;23.344;2023-06-14T11:09:37;94427.44;;;27.82;54.23
3178;BME280;38141;42.666;23.344;2023-06-14T11:12:10;94422.34;;;27.16;58.39
3178;BME280;38141;42.666;23.344;2023-06-14T11:14:38;94413.88;;;26.99;59.13
3178;BME280;38141;42.666;23.344;2023-06-14T11:17:07;94419.78;;;26.81;59.35
3178;BME280;38141;42.666;23.344;2023-06-14T11:19:33;94418.00;;;27.10;58.54
3178;BME280;38141;42.666;23.344;2023-06-14T11:22:01;94410.19;;;27.62;56.68
3178;BME280;38141;42.666;23.344;2023-06-14T11:24:28;94410.66;;;27.55;56.93
3178;BME280;38141;42.666;23.344;2023-06-14T11:26:55;94405.44;;;27.79;57.89
3178;BME280;38141;42.666;23.344;2023-06-14T11:29:23;94405.75;;;27.33;56.93
3178;BME280;38141;42.666;23.344;2023-06-14T11:32:10;94402.69;;;27.84;56.43
3178;BME280;38141;42.666;23.344;2023-06-14T11:34:38;94384.53;;;28.45;54.33
3178;BME280;38141;42.666;23.344;2023-06-14T11:37:05;94399.22;;;28.12;53.57
3178;BME280;38141;42.666;23.344;2023-06-14T11:39:32;94408.34;;;28.51;54.06
3178;BME280;38141;42.666;23.344;2023-06-14T11:41:59;94403.09;;;27.61;57.31
3178;BME280;38141;42.666;23.344;2023-06-14T11:44:26;94402.41;;;27.82;56.93
3178;BME280;38141;42.666;23.344;2023-06-14T11:46:54;94396.63;;;28.08;55.52
3178;BME280;38141;42.666;23.344;2023-06-14T11:49:23;94386.84;;;28.29;54.46
3178;BME280;38141;42.666;23.344;2023-06-14T11:51:53;94380.44;;;27.84;54.74
3178;BME280;38141;42.666;23.344;2023-06-14T11:54:19;94393.06;;;27.21;57.46
3178;BME280;38141;42.666;23.344;2023-06-14T11:56:46;94377.97;;;27.38;56.08
3178;BME280;38141;42.666;23.344;2023-06-14T11:59:13;94369.75;;;27.66;55.91
3178;BME280;38141;42.666;23.344;2023-06-14T12:01:42;94368.19;;;27.54;57.83
3178;BME280;38141;42.666;23.344;2023-06-14T12:04:10;94367.38;;;27.42;56.86
3178;BME280;38141;42.666;23.344;2023-06-14T12:06:38;94338.63;;;27.51;54.91
3178;BME280;38141;42.666;23.344;2023-06-14T12:09:06;94358.53;;;27.38;55.26
3178;BME280;38141;42.666;23.344;2023-06-14T12:11:38;94360.72;;;27.88;53.70
3178;BME280;38141;42.666;23.344;2023-06-14T12:14:05;94334.91;;;27.99;53.39
3178;BME280;38141;42.666;23.344;2023-06-14T12:16:33;94348.13;;;28.15;53.86
3178;BME280;38141;42.666;23.344;2023-06-14T12:19:07;94347.06;;;27.96;52.91
3178;BME280;38141;42.666;23.344;2023-06-14T12:21:36;94350.56;;;27.85;53.25
3178;BME280;38141;42.666;23.344;2023-06-14T12:24:07;94328.78;;;27.56;54.44
3178;BME280;38141;42.666;23.344;2023-06-14T12:26:38;94342.69;;;26.96;56.71
3178;BME280;38141;42.666;23.344;2023-06-14T12:29:06;94346.84;;;26.75;58.38
3178;BME280;38141;42.666;23.344;2023-06-14T12:31:33;94346.91;;;26.86;57.93
3178;BME280;38141;42.666;23.344;2023-06-14T12:34:00;94329.81;;;26.99;58.09
3178;BME280;38141;42.666;23.344;2023-06-14T12:36:27;94317.47;;;26.26;60.71
3178;BME280;38141;42.666;23.344;2023-06-14T12:38:54;94333.22;;;26.40;60.80
3178;BME280;38141;42.666;23.344;2023-06-14T12:41:22;94321.53;;;25.99;62.44
3178;BME280;38141;42.666;23.344;2023-06-14T12:43:50;94334.16;;;26.32;62.25
3178;BME280;38141;42.666;23.344;2023-06-14T12:46:17;94301.50;;;26.16;61.83
3178;BME280;38141;42.666;23.344;2023-06-14T12:48:44;94322.06;;;26.29;63.27
3178;BME280;38141;42.666;23.344;2023-06-14T12:51:10;94310.44;;;26.25;63.64
3178;BME280;38141;42.666;23.344;2023-06-14T12:53:37;94319.69;;;26.53;61.72
3178;BME280;38141;42.666;23.344;2023-06-14T12:56:04;94316.72;;;26.63;61.97
3178;BME280;38141;42.666;23.344;2023-06-14T12:58:32;94305.72;;;26.37;61.81
3178;BME280;38141;42.666;23.344;2023-06-14T13:00:59;94325.97;;;26.48;62.39
3178;BME280;38141;42.666;23.344;2023-06-14T13:03:26;94323.25;;;26.23;63.45